createdAt,value
2023-07-26T00:02:24.494Z,101049.59
2023-07-26T00:07:28.443Z,101047.03
2023-07-26T00:12:32.312Z,101045.22
2023-07-26T00:17:37.511Z,101044.72
2023-07-26T00:22:41.402Z,101042.09
2023-07-26T00:27:45.220Z,101035.69
2023-07-26T00:32:50.446Z,101029.59
2023-07-26T00:37:54.299Z,101037.37
2023-07-26T00:42:58.205Z,101026.50
2023-07-26T00:48:04.045Z,101030.97
2023-07-26T00:53:08.308Z,101034.72
2023-07-26T00:58:13.161Z,101034.69
2023-07-26T01:03:18.443Z,101038.78
2023-07-26T01:08:33.159Z,101042.97
2023-07-26T01:13:46.496Z,101029.72
2023-07-26T01:18:51.889Z,101034.75
2023-07-26T01:23:57.106Z,101045.25
2023-07-26T01:29:00.918Z,101045.38
2023-07-26T01:34:07.065Z,101035.06
2023-07-26T01:39:13.292Z,101042.69
2023-07-26T01:44:17.130Z,101036.50
2023-07-26T01:49:22.311Z,101031.16
2023-07-26T01:54:27.509Z,101030.25
2023-07-26T01:59:31.331Z,101024.09
2023-07-26T02:04:35.263Z,101032.34
2023-07-26T02:09:40.636Z,101030.72
2023-07-26T02:14:44.483Z,101036.09
2023-07-26T02:19:48.484Z,101034.47
2023-07-26T02:24:54.653Z,101039.50
2023-07-26T02:29:58.463Z,101043.19
2023-07-26T02:35:02.361Z,101039.56
2023-07-26T02:40:08.460Z,101041.50
2023-07-26T02:45:12.276Z,101038.91
2023-07-26T02:50:16.347Z,101035.38
2023-07-26T02:55:21.552Z,101032.56
2023-07-26T03:00:25.374Z,101038.56
2023-07-26T03:05:29.566Z,101028.81
2023-07-26T03:10:36.235Z,101031.88
2023-07-26T03:15:41.179Z,101033.44
2023-07-26T03:20:47.582Z,101039.28
2023-07-26T03:25:53.270Z,101035.50
2023-07-26T03:30:57.157Z,101037.91
2023-07-26T03:36:01.673Z,101044.56
2023-07-26T03:41:06.842Z,101045.03
2023-07-26T03:46:10.919Z,101044.94
2023-07-26T03:51:15.033Z,101044.66
2023-07-26T03:56:20.238Z,101046.31
2023-07-26T04:01:24.043Z,101041.97
2023-07-26T04:06:27.972Z,101042.69
2023-07-26T04:11:33.166Z,101037.31
2023-07-26T04:16:37.228Z,101043.25
2023-07-26T04:21:41.207Z,101041.38
2023-07-26T04:26:46.520Z,101049.00
2023-07-26T04:31:50.339Z,101057.66
2023-07-26T04:36:54.196Z,101050.59
2023-07-26T04:41:59.486Z,101046.53
2023-07-26T04:47:03.264Z,101048.19
2023-07-26T04:52:07.529Z,101045.06
2023-07-26T04:57:12.833Z,101034.06
2023-07-26T05:02:16.611Z,101034.94
2023-07-26T05:07:20.451Z,101035.81
2023-07-26T05:12:25.652Z,101037.56
2023-07-26T05:17:29.583Z,101040.25
2023-07-26T05:22:33.372Z,101037.88
2023-07-26T05:27:38.617Z,101048.34
2023-07-26T05:32:42.419Z,101046.38
2023-07-26T05:37:46.232Z,101055.03
2023-07-26T05:42:51.961Z,101065.81
2023-07-26T05:47:56.093Z,101063.63
2023-07-26T05:53:00.005Z,101060.47
2023-07-26T05:58:05.223Z,101058.88
2023-07-26T06:03:09.108Z,101059.81
2023-07-26T06:08:15.297Z,101077.81
2023-07-26T06:13:20.872Z,101079.59
2023-07-26T06:18:24.810Z,101090.69
2023-07-26T06:23:28.604Z,101091.78
2023-07-26T06:28:33.809Z,101109.75
2023-07-26T06:33:38.355Z,101107.19
2023-07-26T06:38:42.706Z,101107.44
2023-07-26T06:43:48.741Z,101121.97
2023-07-26T06:48:52.527Z,101121.19
2023-07-26T06:53:56.369Z,101129.13
2023-07-26T06:59:02.485Z,101136.78
2023-07-26T07:04:13.653Z,101150.91
2023-07-26T07:09:18.833Z,101149.09
2023-07-26T07:14:24.025Z,101147.78
2023-07-26T07:19:27.865Z,101152.53
2023-07-26T07:24:31.739Z,101160.13
2023-07-26T07:29:38.022Z,101161.59
2023-07-26T07:34:43.592Z,101152.06
2023-07-26T07:39:47.320Z,101150.62
2023-07-26T07:44:52.594Z,101153.16
2023-07-26T07:49:56.607Z,101151.53
2023-07-26T07:55:00.516Z,101143.13
2023-07-26T08:00:07.398Z,101154.31
2023-07-26T08:05:15.163Z,101156.22
2023-07-26T08:10:19.369Z,101145.19
2023-07-26T08:15:24.693Z,101148.00
2023-07-26T08:20:28.570Z,101140.00
2023-07-26T08:25:32.650Z,101141.59
2023-07-26T08:30:37.899Z,101138.87
2023-07-26T08:35:41.767Z,101149.81
2023-07-26T08:40:48.313Z,101148.78
2023-07-26T08:45:55.169Z,101156.09
2023-07-26T08:50:59.318Z,101166.19
2023-07-26T08:56:03.392Z,101166.84
2023-07-26T09:01:08.985Z,101162.31
2023-07-26T09:06:12.900Z,101158.69
2023-07-26T09:11:24.684Z,101173.31
2023-07-26T09:16:34.228Z,101161.19
2023-07-26T09:21:39.431Z,101161.47
2023-07-26T09:26:44.308Z,101158.63
2023-07-26T09:31:49.587Z,101144.38
2023-07-26T09:36:55.753Z,101140.62
2023-07-26T09:42:07.101Z,101131.25
2023-07-26T09:47:12.566Z,101130.75
2023-07-26T09:52:21.339Z,101131.87
2023-07-26T09:57:25.665Z,101149.63
2023-07-26T10:02:31.955Z,101145.22
2023-07-26T10:07:38.039Z,101141.69
2023-07-26T10:12:45.225Z,101152.09
2023-07-26T10:17:53.471Z,101145.34
2023-07-26T10:23:03.389Z,101141.56
2023-07-26T10:28:07.813Z,101137.56
2023-07-26T10:33:15.943Z,101124.87
2023-07-26T10:38:20.388Z,101127.00
2023-07-26T10:43:42.890Z,101121.75
2023-07-26T10:48:49.529Z,101125.13
2023-07-26T10:53:55.078Z,101128.53
2023-07-26T10:59:19.688Z,101134.22
2023-07-26T11:04:24.996Z,101116.72
2023-07-26T11:09:30.995Z,101133.44
2023-07-26T11:14:35.286Z,101144.75
2023-07-26T11:19:50.314Z,101138.66
2023-07-26T11:24:54.282Z,101145.66
2023-07-26T11:30:02.361Z,101146.28
2023-07-26T11:35:08.178Z,101148.19
2023-07-26T11:40:13.803Z,101150.97
2023-07-26T11:45:17.914Z,101163.31
2023-07-26T11:50:23.718Z,101163.03
2023-07-26T11:55:27.548Z,101143.28
2023-07-26T12:00:33.060Z,101153.94
2023-07-26T12:05:43.764Z,101151.69
2023-07-26T12:10:49.036Z,101164.50
2023-07-26T12:15:55.322Z,101153.62
2023-07-26T12:21:04.553Z,101157.34
2023-07-26T12:26:10.628Z,101162.16
2023-07-26T12:31:20.042Z,101166.66
2023-07-26T12:36:25.820Z,101148.81
2023-07-26T12:41:29.850Z,101168.94
2023-07-26T12:46:51.574Z,101169.13
2023-07-26T12:52:00.635Z,101169.34
2023-07-26T12:57:06.023Z,101173.41
2023-07-26T13:02:10.085Z,101170.81
2023-07-26T13:07:15.674Z,101175.97
2023-07-26T13:12:19.534Z,101174.41
2023-07-26T13:17:23.410Z,101183.22
2023-07-26T13:22:28.712Z,101164.97
2023-07-26T13:27:33.010Z,101183.81
2023-07-26T13:32:37.391Z,101170.06
2023-07-26T13:37:42.889Z,101160.25
2023-07-26T13:42:46.972Z,101179.16
2023-07-26T13:47:50.926Z,101179.25
2023-07-26T13:52:56.190Z,101170.72
2023-07-26T13:58:00.101Z,101178.50
2023-07-26T14:03:05.616Z,101171.75
2023-07-26T14:08:11.585Z,101173.06
2023-07-26T14:13:15.518Z,101171.56
2023-07-26T14:18:19.508Z,101174.09
2023-07-26T14:23:24.870Z,101178.03
2023-07-26T14:28:29.092Z,101170.53
2023-07-26T14:33:32.958Z,101179.44
2023-07-26T14:38:38.637Z,101173.78
2023-07-26T14:43:42.383Z,101162.66
2023-07-26T14:48:46.234Z,101169.81
2023-07-26T14:53:51.393Z,101168.31
2023-07-26T14:58:55.277Z,101167.66
2023-07-26T15:04:03.070Z,101170.16
2023-07-26T15:09:08.460Z,101167.81
2023-07-26T15:14:12.224Z,101157.34
2023-07-26T15:19:16.147Z,101165.50
2023-07-26T15:24:21.315Z,101167.12
2023-07-26T15:29:25.487Z,101152.91
2023-07-26T15:34:30.117Z,101148.59
2023-07-26T15:39:35.547Z,101153.81
2023-07-26T15:44:39.287Z,101148.59
2023-07-26T15:49:46.025Z,101142.06
2023-07-26T15:54:52.075Z,101134.78
2023-07-26T15:59:57.124Z,101130.22
2023-07-26T16:05:03.991Z,101134.22
2023-07-26T16:10:10.333Z,101133.22
2023-07-26T16:20:20.786Z,101116.31
2023-07-26T16:25:26.072Z,101117.47
2023-07-26T16:30:29.845Z,101106.59
2023-07-26T16:35:33.769Z,101101.84
2023-07-26T16:40:40.791Z,101102.97
2023-07-26T16:45:44.357Z,101100.47
2023-07-26T16:50:48.227Z,101095.63
2023-07-26T16:55:53.454Z,101109.44
2023-07-26T17:00:58.032Z,101103.81
2023-07-26T17:06:01.869Z,101099.75
2023-07-26T17:11:07.009Z,101105.94
2023-07-26T17:16:15.455Z,101104.50
2023-07-26T17:21:19.602Z,101106.31
2023-07-26T17:26:26.172Z,101111.25
2023-07-26T17:31:30.537Z,101100.97
2023-07-26T17:36:34.575Z,101092.03
2023-07-26T17:41:40.013Z,101079.88
2023-07-26T17:46:43.819Z,101077.72
2023-07-26T17:51:47.689Z,101079.78
2023-07-26T17:56:52.873Z,101093.66
2023-07-26T18:01:56.626Z,101096.47
2023-07-26T18:07:00.668Z,101093.81
2023-07-26T18:12:06.801Z,101091.28
2023-07-26T18:17:10.593Z,101100.28
2023-07-26T18:22:14.811Z,101101.34
2023-07-26T18:27:20.059Z,101092.69
2023-07-26T18:32:23.805Z,101088.44
2023-07-26T18:37:27.658Z,101081.41
2023-07-26T18:42:32.775Z,101073.66
2023-07-26T18:47:36.581Z,101071.16
2023-07-26T18:52:40.347Z,101078.34
2023-07-26T18:57:47.298Z,101074.06
2023-07-26T19:02:52.515Z,101075.91
2023-07-26T19:07:56.334Z,101078.66
2023-07-26T19:13:01.447Z,101094.53
2023-07-26T19:18:05.523Z,101082.28
2023-07-26T19:23:09.359Z,101083.19
2023-07-26T19:28:14.441Z,101089.41
2023-07-26T19:33:18.184Z,101097.31
2023-07-26T19:38:21.987Z,101097.34
2023-07-26T19:43:27.126Z,101087.72
2023-07-26T19:48:30.936Z,101091.25
2023-07-26T19:53:34.688Z,101087.75
2023-07-26T19:58:39.840Z,101100.94
2023-07-26T20:03:43.649Z,101093.88
2023-07-26T20:08:47.438Z,101089.47
2023-07-26T20:13:52.652Z,101085.94
2023-07-26T20:18:56.442Z,101086.81
2023-07-26T20:24:00.199Z,101085.00
2023-07-26T20:29:05.343Z,101085.81
2023-07-26T20:34:09.104Z,101074.34
2023-07-26T20:39:12.874Z,101073.47
2023-07-26T20:44:18.120Z,101063.75
2023-07-26T20:49:21.903Z,101062.88
2023-07-26T20:54:25.702Z,101040.87
2023-07-26T20:59:31.972Z,101037.31
2023-07-26T21:04:36.181Z,101041.69
2023-07-26T21:09:39.958Z,101033.69
2023-07-26T21:14:45.619Z,101037.19
2023-07-26T21:19:49.626Z,101020.53
2023-07-26T21:24:53.665Z,101020.53
2023-07-26T21:29:58.913Z,101006.53
2023-07-26T21:35:02.725Z,101009.13
2023-07-26T21:40:08.311Z,100998.59
2023-07-26T21:45:14.133Z,100989.75
2023-07-26T21:50:17.998Z,100994.16
2023-07-26T21:55:21.802Z,100984.44
2023-07-26T22:00:26.962Z,100977.41
2023-07-26T22:05:30.732Z,100978.25
2023-07-26T22:10:36.081Z,100976.47
2023-07-26T22:15:41.282Z,100969.41
2023-07-26T22:26:11.355Z,100957.16
2023-07-26T22:31:19.370Z,100951.87
2023-07-26T22:36:23.199Z,100944.91
2023-07-26T22:41:26.976Z,100944.00
2023-07-26T22:46:32.690Z,100942.19
2023-07-26T22:51:36.910Z,100936.94
2023-07-26T22:56:43.636Z,100933.38
2023-07-26T23:01:48.775Z,100940.41
2023-07-26T23:06:52.617Z,100936.94
2023-07-26T23:11:56.375Z,100949.94
2023-07-26T23:17:01.552Z,100950.59
2023-07-26T23:22:07.172Z,100947.88
2023-07-26T23:27:10.926Z,100944.12
2023-07-26T23:32:16.229Z,100940.56
2023-07-26T23:37:20.037Z,100937.88
2023-07-26T23:42:23.813Z,100934.38
2023-07-26T23:47:28.983Z,100921.91
2023-07-26T23:52:32.773Z,100915.59
2023-07-26T23:57:36.550Z,100916.47
